createdAt,value
2023-01-02T00:00:24.969Z,27.50
2023-01-02T00:02:56.179Z,27.07
2023-01-02T00:05:25.627Z,26.97
2023-01-02T00:07:55.865Z,26.83
2023-01-02T00:10:26.278Z,27.23
2023-01-02T00:12:55.821Z,28.67
2023-01-02T00:15:23.930Z,27.50
2023-01-02T00:20:34.007Z,26.33
2023-01-02T00:23:01.955Z,28.50
2023-01-02T00:25:30.596Z,27.23
2023-01-02T00:28:01.461Z,27.27
2023-01-02T00:30:38.250Z,25.83
2023-01-02T00:33:06.772Z,26.33
2023-01-02T00:35:42.495Z,23.20
2023-01-02T00:38:11.225Z,26.80
2023-01-02T00:40:46.203Z,24.87
2023-01-02T00:43:20.033Z,23.87
2023-01-02T00:45:51.243Z,24.07
2023-01-02T00:48:18.295Z,23.77
2023-01-02T00:50:46.539Z,25.83
2023-01-02T00:53:14.101Z,25.80
2023-01-02T00:55:44.881Z,24.40
2023-01-02T00:58:12.380Z,25.70
2023-01-02T01:00:42.955Z,27.07
2023-01-02T01:03:10.033Z,26.13
2023-01-02T01:05:40.783Z,25.83
2023-01-02T01:08:07.918Z,26.53
2023-01-02T01:10:36.895Z,25.77
2023-01-02T01:13:04.808Z,25.47
2023-01-02T01:15:33.887Z,27.23
2023-01-02T01:18:03.112Z,26.47
2023-01-02T01:23:15.440Z,24.40
2023-01-02T01:25:46.131Z,25.20
2023-01-02T01:28:16.917Z,25.13
2023-01-02T01:30:45.446Z,24.17
2023-01-02T01:33:21.022Z,23.70
2023-01-02T01:35:50.610Z,25.43
2023-01-02T01:38:20.073Z,24.33
2023-01-02T01:40:47.050Z,23.20
2023-01-02T01:43:16.966Z,23.90
2023-01-02T01:45:47.315Z,22.87
2023-01-02T01:48:17.469Z,23.00
2023-01-02T01:50:46.137Z,22.40
2023-01-02T01:53:18.213Z,23.37
2023-01-02T01:55:58.386Z,21.90
2023-01-02T01:58:43.086Z,24.37
2023-01-02T02:01:15.937Z,22.53
2023-01-02T02:03:51.267Z,22.70
2023-01-02T02:06:19.836Z,22.53
2023-01-02T02:09:09.514Z,22.17
2023-01-02T02:11:37.687Z,21.70
2023-01-02T02:14:05.864Z,24.77
2023-01-02T02:17:03.476Z,23.23
2023-01-02T02:19:56.386Z,23.13
2023-01-02T02:22:43.325Z,22.00
2023-01-02T02:25:52.591Z,21.40
2023-01-02T02:28:56.623Z,23.17
2023-01-02T02:32:10.355Z,22.70
2023-01-02T02:35:01.875Z,24.97
2023-01-02T02:37:55.200Z,23.03
2023-01-02T02:40:46.567Z,22.70
2023-01-02T02:43:31.104Z,23.17
2023-01-02T02:46:04.152Z,23.37
2023-01-02T02:48:46.712Z,24.07
2023-01-02T02:52:12.429Z,23.50
2023-01-02T02:55:19.351Z,25.33
2023-01-02T02:57:50.466Z,25.97
2023-01-02T03:00:20.305Z,25.07
2023-01-02T03:02:47.383Z,23.93
2023-01-02T03:05:42.572Z,25.27
2023-01-02T03:08:49.562Z,25.13
2023-01-02T03:11:17.894Z,25.37
2023-01-02T03:14:01.219Z,24.43
2023-01-02T03:16:56.685Z,27.27
2023-01-02T03:19:46.919Z,25.93
2023-01-02T03:22:29.289Z,25.43
2023-01-02T03:24:59.974Z,27.30
2023-01-02T03:27:33.812Z,25.17
2023-01-02T03:30:12.822Z,24.70
2023-01-02T03:32:54.897Z,25.07
2023-01-02T03:35:27.565Z,24.40
2023-01-02T03:38:00.688Z,22.70
2023-01-02T03:40:49.022Z,23.53
2023-01-02T03:43:22.333Z,24.07
2023-01-02T03:46:10.003Z,25.07
2023-01-02T03:49:00.136Z,22.40
2023-01-02T03:51:30.527Z,23.47
2023-01-02T03:54:03.042Z,23.43
2023-01-02T03:57:01.115Z,22.90
2023-01-02T03:59:57.547Z,23.60
2023-01-02T04:02:34.926Z,23.17
2023-01-02T04:05:26.664Z,23.53
2023-01-02T04:08:30.757Z,23.63
2023-01-02T04:11:00.202Z,23.80
2023-01-02T04:13:38.102Z,22.87
2023-01-02T04:16:11.033Z,23.80
2023-01-02T04:18:47.461Z,24.67
2023-01-02T04:21:23.892Z,24.30
2023-01-02T04:24:05.018Z,23.73
2023-01-02T04:26:39.486Z,23.93
2023-01-02T04:29:06.544Z,23.60
2023-01-02T04:31:41.689Z,24.77
2023-01-02T04:34:16.599Z,27.37
2023-01-02T04:36:46.575Z,27.27
2023-01-02T04:39:15.129Z,26.17
2023-01-02T04:41:43.355Z,24.70
2023-01-02T04:44:14.294Z,24.17
2023-01-02T04:46:41.325Z,24.57
2023-01-02T04:49:10.255Z,24.87
2023-01-02T04:51:37.272Z,25.20
2023-01-02T04:54:05.365Z,26.00
2023-01-02T04:56:32.345Z,26.87
2023-01-02T04:59:00.350Z,26.10
2023-01-02T05:01:30.057Z,25.87
2023-01-02T05:04:00.335Z,26.07
2023-01-02T05:09:09.583Z,25.53
2023-01-02T05:14:18.626Z,26.33
2023-01-02T05:16:46.773Z,25.00
2023-01-02T05:19:14.118Z,26.23
2023-01-02T05:22:03.560Z,27.57
2023-01-02T05:24:33.404Z,26.90
2023-01-02T05:27:02.312Z,26.43
2023-01-02T05:29:35.411Z,25.90
2023-01-02T05:32:02.421Z,26.07
2023-01-02T05:34:32.305Z,25.83
2023-01-02T05:37:01.925Z,27.50
2023-01-02T05:39:29.137Z,26.20
2023-01-02T05:42:00.994Z,25.83
2023-01-02T05:44:29.499Z,27.47
2023-01-02T05:46:56.473Z,25.73
2023-01-02T05:49:27.074Z,26.67
2023-01-02T05:51:54.230Z,24.57
2023-01-02T05:54:35.368Z,26.20
2023-01-02T05:57:02.406Z,26.60
2023-01-02T05:59:29.887Z,25.50
2023-01-02T06:01:58.524Z,25.23
2023-01-02T06:04:25.554Z,27.83
2023-01-02T06:06:54.532Z,24.87
2023-01-02T06:09:24.569Z,25.63
2023-01-02T06:11:52.993Z,26.00
2023-01-02T06:14:22.705Z,25.60
2023-01-02T06:16:52.169Z,26.07
2023-01-02T06:19:19.175Z,25.90
2023-01-02T06:21:47.266Z,24.93
2023-01-02T06:27:00.681Z,25.20
2023-01-02T06:29:29.550Z,24.00
2023-01-02T06:32:00.764Z,24.33
2023-01-02T06:34:28.135Z,23.70
2023-01-02T06:36:57.750Z,23.93
2023-01-02T06:39:24.751Z,23.60
2023-01-02T06:41:53.611Z,22.20
2023-01-02T06:44:20.768Z,21.77
2023-01-02T06:46:48.255Z,22.03
2023-01-02T06:49:24.737Z,22.43
2023-01-02T06:51:55.045Z,22.07
2023-01-02T06:54:30.809Z,20.83
2023-01-02T06:57:01.744Z,20.40
2023-01-02T06:59:28.796Z,20.60
2023-01-02T07:01:57.963Z,21.60
2023-01-02T07:04:27.422Z,22.67
2023-01-02T07:06:54.411Z,22.97
2023-01-02T07:09:23.058Z,21.90
2023-01-02T07:11:52.984Z,22.90
2023-01-02T07:14:21.283Z,21.37
2023-01-02T07:16:48.210Z,22.20
2023-01-02T07:19:16.295Z,22.63
2023-01-02T07:21:44.607Z,20.77
2023-01-02T07:24:16.036Z,22.63
2023-01-02T07:26:46.942Z,21.90
2023-01-02T07:29:16.270Z,22.67
2023-01-02T07:31:43.474Z,20.90
2023-01-02T07:34:10.537Z,21.07
2023-01-02T07:36:38.449Z,20.33
2023-01-02T07:39:05.455Z,20.87
2023-01-02T07:41:33.773Z,22.77
2023-01-02T07:44:07.722Z,21.80
2023-01-02T07:46:34.790Z,22.03
2023-01-02T07:49:02.059Z,22.27
2023-01-02T07:51:37.101Z,22.13
2023-01-02T07:54:04.440Z,23.10
2023-01-02T07:56:32.813Z,24.30
2023-01-02T07:58:59.730Z,23.27
2023-01-02T08:01:34.383Z,22.10
2023-01-02T08:04:02.811Z,22.37
2023-01-02T08:06:30.250Z,21.83
2023-01-02T08:09:00.665Z,22.27
2023-01-02T08:11:31.083Z,23.17
2023-01-02T08:14:01.457Z,22.40
2023-01-02T08:16:31.466Z,23.00
2023-01-02T08:18:58.667Z,23.33
2023-01-02T08:21:26.979Z,23.70
2023-01-02T08:23:54.207Z,22.87
2023-01-02T08:26:23.601Z,23.97
2023-01-02T08:28:52.188Z,21.67
2023-01-02T08:31:21.436Z,20.23
2023-01-02T08:33:48.920Z,20.43
2023-01-02T08:36:15.978Z,19.80
2023-01-02T08:38:44.330Z,19.90
2023-01-02T08:41:11.390Z,19.97
2023-01-02T08:43:38.654Z,20.40
2023-01-02T08:46:07.597Z,20.37
2023-01-02T08:48:36.427Z,20.63
2023-01-02T08:51:06.839Z,18.87
2023-01-02T08:53:33.851Z,20.63
2023-01-02T08:56:29.787Z,20.33
2023-01-02T08:59:02.279Z,20.03
2023-01-02T09:01:31.426Z,20.47
2023-01-02T09:03:59.855Z,21.13
2023-01-02T09:06:30.236Z,22.80
2023-01-02T09:08:59.535Z,20.23
2023-01-02T09:11:33.444Z,19.80
2023-01-02T09:14:02.072Z,20.67
2023-01-02T09:16:29.895Z,20.33
2023-01-02T09:19:01.238Z,21.07
2023-01-02T09:21:30.285Z,21.03
2023-01-02T09:23:58.363Z,21.93
2023-01-02T09:26:25.441Z,20.60
2023-01-02T09:28:54.704Z,20.93
2023-01-02T09:31:23.433Z,21.17
2023-01-02T09:33:54.413Z,21.03
2023-01-02T09:36:21.926Z,21.40
2023-01-02T09:38:58.926Z,20.60
2023-01-02T09:41:36.058Z,21.37
2023-01-02T09:44:43.876Z,19.57
2023-01-02T09:47:10.791Z,19.30
2023-01-02T09:49:47.688Z,19.83
2023-01-02T09:52:22.136Z,20.03
2023-01-02T09:54:49.204Z,20.77
2023-01-02T09:57:30.482Z,20.43
2023-01-02T10:00:20.036Z,21.53
2023-01-02T10:03:12.298Z,22.17
2023-01-02T10:06:11.948Z,21.57
2023-01-02T10:09:05.129Z,21.57
2023-01-02T10:11:45.417Z,22.57
2023-01-02T10:14:44.725Z,22.23
2023-01-02T10:17:15.964Z,22.17
2023-01-02T10:19:58.272Z,21.10
2023-01-02T10:22:44.318Z,20.63
2023-01-02T10:25:19.366Z,19.77
2023-01-02T10:28:02.241Z,18.83
2023-01-02T10:30:47.162Z,19.03
2023-01-02T10:33:37.505Z,18.70
2023-01-02T10:36:04.829Z,18.77
2023-01-02T10:38:39.424Z,17.80
2023-01-02T10:41:06.471Z,20.63
2023-01-02T10:43:35.136Z,18.83
2023-01-02T10:46:05.535Z,18.50
2023-01-02T10:48:36.573Z,17.27
2023-01-02T10:51:11.618Z,18.47
2023-01-02T10:53:38.631Z,17.93
2023-01-02T10:56:18.702Z,19.40
2023-01-02T10:58:53.541Z,19.57
2023-01-02T11:01:22.328Z,18.13
2023-01-02T11:04:11.378Z,19.10
2023-01-02T11:06:54.220Z,20.13
2023-01-02T11:09:28.485Z,20.97
2023-01-02T11:11:57.470Z,19.67
2023-01-02T11:14:30.777Z,19.50
2023-01-02T11:17:06.074Z,19.93
2023-01-02T11:19:41.921Z,19.90
2023-01-02T11:22:17.810Z,19.93
2023-01-02T11:25:00.651Z,19.87
2023-01-02T11:27:33.899Z,19.10
2023-01-02T11:30:01.936Z,18.93
2023-01-02T11:32:40.919Z,19.70
2023-01-02T11:35:36.834Z,19.47
2023-01-02T11:38:04.054Z,17.87
2023-01-02T11:40:34.013Z,18.43
2023-01-02T11:43:27.447Z,18.50
2023-01-02T11:45:56.494Z,18.40
2023-01-02T11:48:24.944Z,19.53
2023-01-02T11:50:53.592Z,20.27
2023-01-02T11:53:40.636Z,19.53
2023-01-02T11:56:14.115Z,20.33
2023-01-02T11:59:16.893Z,20.43
2023-01-02T12:02:05.525Z,19.63
2023-01-02T12:04:32.755Z,20.03
2023-01-02T12:07:17.926Z,20.33
2023-01-02T12:10:23.607Z,20.60
2023-01-02T12:13:00.105Z,20.87
2023-01-02T12:15:48.494Z,19.33
2023-01-02T12:18:53.552Z,17.83
2023-01-02T12:21:47.198Z,17.80
2023-01-02T12:24:38.157Z,17.70
2023-01-02T12:27:15.527Z,18.93
2023-01-02T12:30:19.500Z,18.20
2023-01-02T12:33:04.572Z,17.27
2023-01-02T12:35:49.636Z,18.03
2023-01-02T12:38:55.019Z,17.87
2023-01-02T12:41:30.595Z,18.43
2023-01-02T12:44:27.255Z,17.03
2023-01-02T12:47:23.183Z,16.33
2023-01-02T12:50:02.350Z,17.40
2023-01-02T12:52:44.701Z,17.37
2023-01-02T12:55:48.375Z,18.63
2023-01-02T12:58:51.074Z,17.40
2023-01-02T13:01:30.928Z,16.70
2023-01-02T13:04:22.388Z,18.07
2023-01-02T13:07:13.074Z,18.57
2023-01-02T13:09:42.600Z,17.33
2023-01-02T13:12:22.179Z,17.40
2023-01-02T13:15:15.446Z,19.63
2023-01-02T13:17:51.557Z,18.50
2023-01-02T13:20:40.691Z,19.77
2023-01-02T13:23:25.489Z,19.50
2023-01-02T13:25:58.251Z,19.37
2023-01-02T13:28:25.909Z,19.77
2023-01-02T13:31:35.322Z,18.53
2023-01-02T13:33:52.271Z,19.83
2023-01-02T13:36:37.444Z,19.87
2023-01-02T13:39:32.547Z,19.73
2023-01-02T13:42:20.968Z,20.43
2023-01-02T13:44:53.352Z,20.27
2023-01-02T13:47:34.860Z,20.27
2023-01-02T13:50:36.751Z,21.03
2023-01-02T13:53:37.193Z,20.73
2023-01-02T13:56:10.613Z,20.67
2023-01-02T13:59:42.597Z,19.57
2023-01-02T14:02:20.193Z,21.57
2023-01-02T14:04:47.550Z,22.53
2023-01-02T14:07:30.910Z,21.93
2023-01-02T14:10:09.994Z,21.47
2023-01-02T14:13:07.212Z,22.33
2023-01-02T14:15:54.124Z,20.97
2023-01-02T14:18:31.040Z,22.73
2023-01-02T14:20:58.153Z,22.33
2023-01-02T14:24:18.465Z,21.73
2023-01-02T14:26:38.356Z,21.67
2023-01-02T14:29:19.552Z,21.07
2023-01-02T14:31:48.257Z,23.17
2023-01-02T14:34:23.859Z,21.67
2023-01-02T14:37:02.084Z,21.73
2023-01-02T14:39:36.457Z,20.40
2023-01-02T14:42:31.648Z,19.63
2023-01-02T14:45:07.501Z,20.40
2023-01-02T14:47:44.950Z,18.70
2023-01-02T14:50:26.652Z,19.20
2023-01-02T14:53:29.204Z,19.23
2023-01-02T14:56:03.978Z,17.27
2023-01-02T14:58:42.138Z,18.40
2023-01-02T15:01:12.859Z,17.87
2023-01-02T15:04:39.218Z,18.37
2023-01-02T15:07:17.001Z,17.93
2023-01-02T15:09:57.658Z,17.20
2023-01-02T15:13:07.337Z,17.93
2023-01-02T15:15:43.187Z,16.67
2023-01-02T15:18:33.397Z,16.93
2023-01-02T15:21:18.132Z,18.13
2023-01-02T15:23:47.817Z,17.10
2023-01-02T15:26:35.861Z,17.20
2023-01-02T15:29:19.131Z,21.53
2023-01-02T15:32:06.095Z,21.20
2023-01-02T15:37:21.061Z,20.17
2023-01-02T15:39:52.985Z,21.30
2023-01-02T15:42:45.394Z,19.43
2023-01-02T15:45:18.460Z,19.03
2023-01-02T15:47:51.093Z,18.80
2023-01-02T15:50:29.997Z,19.83
2023-01-02T15:53:05.925Z,19.67
2023-01-02T15:55:37.918Z,21.57
2023-01-02T15:58:33.442Z,22.60
2023-01-02T16:01:24.598Z,22.60
2023-01-02T16:04:03.103Z,22.13
2023-01-02T16:06:47.457Z,22.87
2023-01-02T16:09:26.676Z,21.97
2023-01-02T16:12:02.287Z,21.53
2023-01-02T16:14:50.646Z,22.03
2023-01-02T16:17:35.368Z,21.97
2023-01-02T16:20:20.684Z,23.00
2023-01-02T16:22:50.697Z,24.17
2023-01-02T16:25:25.868Z,25.63
2023-01-02T16:27:56.411Z,30.90
2023-01-02T16:30:45.368Z,29.43
2023-01-02T16:33:34.335Z,25.63
2023-01-02T16:36:06.745Z,24.30
2023-01-02T16:39:02.609Z,22.57
2023-01-02T16:41:40.879Z,22.97
2023-01-02T16:44:16.074Z,21.60
2023-01-02T16:46:46.001Z,22.90
2023-01-02T16:49:26.879Z,21.20
2023-01-02T16:51:54.993Z,21.83
2023-01-02T16:54:24.407Z,21.00
2023-01-02T16:56:54.662Z,19.47
2023-01-02T16:59:21.806Z,19.40
2023-01-02T17:01:48.773Z,20.40
2023-01-02T17:04:16.448Z,20.17
2023-01-02T17:06:43.425Z,19.57
2023-01-02T17:09:13.286Z,19.90
2023-01-02T17:12:00.635Z,20.23
2023-01-02T17:14:29.775Z,19.90
2023-01-02T17:16:57.837Z,19.70
2023-01-02T17:19:33.631Z,20.33
2023-01-02T17:22:01.692Z,19.60
2023-01-02T17:24:32.271Z,20.63
2023-01-02T17:26:59.279Z,19.67
2023-01-02T17:29:30.709Z,19.73
2023-01-02T17:31:59.088Z,19.50
2023-01-02T17:34:38.768Z,20.00
2023-01-02T17:37:05.853Z,17.73
2023-01-02T17:39:32.750Z,19.60
2023-01-02T17:42:02.466Z,17.57
2023-01-02T17:44:29.432Z,18.37
2023-01-02T17:47:23.207Z,16.37
2023-01-02T17:49:51.409Z,17.40
2023-01-02T17:52:22.354Z,15.63
2023-01-02T17:54:56.199Z,14.83
2023-01-02T17:57:24.181Z,14.10
2023-01-02T17:59:53.630Z,13.87
2023-01-02T18:02:22.091Z,14.07
2023-01-02T18:04:54.834Z,14.73
2023-01-02T18:07:28.341Z,15.43
2023-01-02T18:10:08.098Z,14.17
2023-01-02T18:12:38.381Z,13.83
2023-01-02T18:15:16.758Z,13.57
2023-01-02T18:17:43.997Z,15.70
2023-01-02T18:20:20.461Z,19.00
2023-01-02T18:22:50.810Z,17.27
2023-01-02T18:25:30.051Z,15.67
2023-01-02T18:28:25.580Z,17.03
2023-01-02T18:30:58.591Z,15.37
2023-01-02T18:33:30.606Z,18.00
2023-01-02T18:36:03.979Z,19.20
2023-01-02T18:38:41.878Z,15.90
2023-01-02T18:41:17.989Z,16.93
2023-01-02T18:43:50.063Z,17.93
2023-01-02T18:47:03.571Z,16.60
2023-01-02T18:49:25.190Z,16.57
2023-01-02T18:52:15.834Z,17.43
2023-01-02T18:54:51.070Z,16.30
2023-01-02T18:57:23.351Z,17.40
2023-01-02T18:59:59.324Z,18.00
2023-01-02T19:02:33.888Z,19.03
2023-01-02T19:05:14.136Z,18.70
2023-01-02T19:07:41.461Z,19.37
2023-01-02T19:10:36.909Z,19.20
2023-01-02T19:13:13.148Z,17.63
2023-01-02T19:15:51.174Z,17.00
2023-01-02T19:18:25.539Z,17.60
2023-01-02T19:21:16.309Z,17.87
2023-01-02T19:24:09.801Z,16.50
2023-01-02T19:26:47.729Z,16.73
2023-01-02T19:29:23.336Z,17.57
2023-01-02T19:32:03.170Z,17.57
2023-01-02T19:34:50.248Z,17.63
2023-01-02T19:37:44.235Z,17.17
2023-01-02T19:40:20.830Z,18.63
2023-01-02T19:42:49.914Z,17.13
2023-01-02T19:45:25.757Z,16.73
2023-01-02T19:47:55.518Z,16.77
2023-01-02T19:50:26.447Z,17.27
2023-01-02T19:52:55.209Z,19.07
2023-01-02T19:55:23.579Z,18.23
2023-01-02T19:57:51.339Z,16.97
2023-01-02T20:00:35.228Z,17.60
2023-01-02T20:03:03.183Z,17.50
2023-01-02T20:05:31.103Z,17.93
2023-01-02T20:08:00.216Z,17.97
2023-01-02T20:10:29.601Z,17.90
2023-01-02T20:13:01.339Z,17.60
2023-01-02T20:15:30.408Z,18.23
2023-01-02T20:18:06.632Z,17.33
2023-01-02T20:20:37.002Z,17.73
2023-01-02T20:23:05.772Z,18.27
2023-01-02T20:25:33.535Z,18.23
2023-01-02T20:28:03.472Z,17.83
2023-01-02T20:30:32.396Z,19.07
2023-01-02T20:33:00.139Z,19.13
2023-01-02T20:35:34.578Z,20.87
2023-01-02T20:38:02.628Z,21.43
2023-01-02T20:40:30.617Z,20.80
2023-01-02T20:42:59.298Z,22.57
2023-01-02T20:45:37.381Z,21.10
2023-01-02T20:48:11.233Z,21.83
2023-01-02T20:50:39.244Z,22.10
2023-01-02T20:53:07.681Z,20.10
2023-01-02T20:55:38.205Z,20.13
2023-01-02T20:58:08.579Z,19.10
2023-01-02T21:00:38.620Z,19.33
2023-01-02T21:03:11.013Z,19.97
2023-01-02T21:05:41.963Z,19.63
2023-01-02T21:08:10.190Z,18.47
2023-01-02T21:10:38.756Z,18.77
2023-01-02T21:13:17.107Z,17.93
2023-01-02T21:15:58.382Z,17.67
2023-01-02T21:18:29.771Z,17.63
2023-01-02T21:20:58.344Z,18.60
2023-01-02T21:23:34.511Z,17.50
2023-01-02T21:26:04.787Z,18.10
2023-01-02T21:28:34.087Z,18.67
2023-01-02T21:31:04.311Z,19.17
2023-01-02T21:33:34.319Z,17.93
2023-01-02T21:36:15.888Z,17.27
2023-01-02T21:38:45.681Z,16.03
2023-01-02T21:41:34.361Z,15.40
2023-01-02T21:44:04.656Z,15.10
2023-01-02T21:46:34.056Z,15.60
2023-01-02T21:49:04.694Z,14.80
2023-01-02T21:51:34.186Z,14.57
2023-01-02T21:54:12.012Z,15.00
2023-01-02T21:56:39.043Z,14.70
2023-01-02T21:59:08.053Z,15.33
2023-01-02T22:01:36.236Z,14.83
2023-01-02T22:04:07.163Z,15.77
2023-01-02T22:06:36.766Z,15.67
2023-01-02T22:09:10.758Z,15.33
2023-01-02T22:11:56.055Z,16.10
2023-01-02T22:14:36.668Z,16.00
2023-01-02T22:17:08.264Z,17.77
2023-01-02T22:19:39.544Z,18.63
2023-01-02T22:22:07.218Z,18.50
2023-01-02T22:24:40.679Z,20.00
2023-01-02T22:27:12.944Z,19.83
2023-01-02T22:30:19.593Z,22.30
2023-01-02T22:32:33.984Z,22.63
2023-01-02T22:35:04.573Z,21.10
2023-01-02T22:37:31.594Z,18.97
2023-01-02T22:40:04.084Z,18.80
2023-01-02T22:43:00.834Z,20.70
2023-01-02T22:45:34.281Z,20.80
2023-01-02T22:48:08.614Z,20.70
2023-01-02T22:50:43.066Z,20.77
2023-01-02T22:53:29.347Z,20.67
2023-01-02T22:55:59.616Z,18.30
2023-01-02T22:58:32.411Z,19.03
2023-01-02T23:01:16.371Z,17.93
2023-01-02T23:03:46.305Z,18.07
2023-01-02T23:08:59.822Z,18.63
2023-01-02T23:11:30.899Z,18.20
2023-01-02T23:14:02.827Z,18.13
2023-01-02T23:16:50.392Z,16.20
2023-01-02T23:19:20.837Z,16.77
2023-01-02T23:21:54.523Z,17.43
2023-01-02T23:24:29.083Z,17.80
2023-01-02T23:26:59.168Z,17.43
2023-01-02T23:29:35.562Z,16.27
2023-01-02T23:32:05.217Z,15.80
2023-01-02T23:37:17.103Z,16.10
2023-01-02T23:39:48.501Z,16.00
2023-01-02T23:42:19.799Z,15.10
2023-01-02T23:44:49.728Z,15.83
2023-01-02T23:47:19.385Z,16.27
2023-01-02T23:49:51.110Z,15.60
2023-01-02T23:52:20.878Z,16.07
2023-01-02T23:54:57.103Z,15.83
2023-01-02T23:57:27.452Z,15.73
2023-01-02T23:59:54.974Z,16.13
